Denver, CO

3:28 AM MST on February 23, 2017 (GMT -0700)
Stapleton | | Change Station

Elev 5262 ft 39.76 °N, 104.87 °W | Updated 12 minutes ago

Partly Cloudy
Partly Cloudy
29.3 °F
Feels Like 29 °F
N
1.0
Wind Variable Wind from NNE
Gusts 3.0 mph

Today
High -- | Low -- °F
--% Chance of Precip.
Yesterday
High -- | Low -- °F
Precip. -- in
Pressure 29.59 in
Visibility 10.0 miles
Clouds Few 11000 ft
Scattered Clouds 22000 ft
Windchill 29 °F
Dew Point 24 °F
Humidity 82%
Rainfall 0.00 in
Snow Depth Not available.
6:40 AM 5:45 PM
Waning Crescent, 11% visible
METAR KBKF 230958Z 35006KT 10SM FEW110 SCT220 M04/M04 A2964 RMK AO2A SLP019 T10361039
Pressure 29.59 in
Visibility 10.0 miles
Clouds Few 11000 ft
Scattered Clouds 22000 ft
Windchill 29 °F
Dew Point 24 °F
Humidity 82%
Rainfall 0.00 in
Snow Depth Not available.
6:40 AM 5:45 PM
Waning Crescent, 11% visible
METAR KBKF 230958Z 35006KT 10SM FEW110 SCT220 M04/M04 A2964 RMK AO2A SLP019 T10361039

Get Your Daily Forecast Email!

Thanks for signing up!

Be on the lookout for a verification email in your inbox.

You'll start receiving the daily forecast at 8 AM.

×

10-Day Weather Forecast

Almanac

Astronomy

Feb. 23, 2017 Rise Set
Actual Time
Civil Twilight
Nautical Twilight
Astronomical Twilight
Moon
Length of Visible Light
Length of Day
Tomorrow will be .
, % of the Moon is Illuminated

Today's Extremes

State Highs State Lows

Community

WunderPhotos

Upload Photos

1,962,540 photos uploaded!

WunderBlog® & News

Nearby

Air Quality

  Air Quality AQ Index Pollutant
Not available.

Snow Depth

Station Depth Elevation

Earthquake Activity

City Distance Mag. Time & Date
Minimum magnitude displayed is 2.5.

Coastal Water Temperatures

Place Temperature

Stations

Nearby Weather Stations

Station Location Temp. Windchill Dew Point Humidity Wind Precip. Elev Updated Type
                   

Watches & Warnings

There are currently no watches in effect.